sensor_id;sensor_type;location;lat;lon;timestamp;P1;durP1;ratioP1;P2;durP2;ratioP2
79664;SDS011;69132;44.014;20.918;2023-12-14T05:31:19;36.35;;;19.90;;
79664;SDS011;69132;44.014;20.918;2023-12-14T05:33:45;37.00;;;20.25;;
79664;SDS011;69132;44.014;20.918;2023-12-14T05:36:11;33.78;;;18.20;;
79664;SDS011;69132;44.014;20.918;2023-12-14T05:38:40;19.02;;;10.30;;
79664;SDS011;69132;44.014;20.918;2023-12-14T05:41:10;16.42;;;9.90;;
79664;SDS011;69132;44.014;20.918;2023-12-14T05:43:40;18.77;;;9.45;;
79664;SDS011;69132;44.014;20.918;2023-12-14T05:46:06;12.18;;;7.55;;
79664;SDS011;69132;44.014;20.918;2023-12-14T05:48:32;11.40;;;6.97;;
79664;SDS011;69132;44.014;20.918;2023-12-14T05:50:59;17.15;;;8.55;;
79664;SDS011;69132;44.014;20.918;2023-12-14T05:53:26;21.35;;;10.70;;
79664;SDS011;69132;44.014;20.918;2023-12-14T05:55:52;21.25;;;10.75;;
79664;SDS011;69132;44.014;20.918;2023-12-14T05:58:18;19.10;;;11.20;;
79664;SDS011;69132;44.014;20.918;2023-12-14T06:00:53;23.80;;;12.77;;
79664;SDS011;69132;44.014;20.918;2023-12-14T06:03:21;19.63;;;9.55;;
79664;SDS011;69132;44.014;20.918;2023-12-14T06:05:47;15.23;;;9.45;;
79664;SDS011;69132;44.014;20.918;2023-12-14T06:08:15;17.05;;;8.98;;
79664;SDS011;69132;44.014;20.918;2023-12-14T06:10:44;13.25;;;7.75;;
79664;SDS011;69132;44.014;20.918;2023-12-14T06:13:10;13.75;;;7.95;;
79664;SDS011;69132;44.014;20.918;2023-12-14T06:15:37;15.00;;;8.55;;
79664;SDS011;69132;44.014;20.918;2023-12-14T06:18:04;20.67;;;9.95;;
79664;SDS011;69132;44.014;20.918;2023-12-14T06:20:30;12.95;;;7.57;;
79664;SDS011;69132;44.014;20.918;2023-12-14T06:22:57;12.23;;;6.57;;
79664;SDS011;69132;44.014;20.918;2023-12-14T06:25:23;10.10;;;6.43;;
79664;SDS011;69132;44.014;20.918;2023-12-14T06:27:51;9.40;;;6.72;;
79664;SDS011;69132;44.014;20.918;2023-12-14T06:30:17;13.32;;;7.47;;
79664;SDS011;69132;44.014;20.918;2023-12-14T06:32:46;15.50;;;8.50;;
79664;SDS011;69132;44.014;20.918;2023-12-14T06:35:12;10.77;;;6.55;;
79664;SDS011;69132;44.014;20.918;2023-12-14T06:37:40;12.80;;;8.30;;
79664;SDS011;69132;44.014;20.918;2023-12-14T06:40:07;15.85;;;9.65;;
79664;SDS011;69132;44.014;20.918;2023-12-14T06:42:33;11.25;;;7.57;;
79664;SDS011;69132;44.014;20.918;2023-12-14T06:45:01;15.07;;;9.27;;
79664;SDS011;69132;44.014;20.918;2023-12-14T06:47:27;13.90;;;8.73;;
79664;SDS011;69132;44.014;20.918;2023-12-14T06:49:54;11.57;;;8.25;;
79664;SDS011;69132;44.014;20.918;2023-12-14T06:52:22;14.13;;;8.87;;
79664;SDS011;69132;44.014;20.918;2023-12-14T06:54:49;14.82;;;8.57;;
79664;SDS011;69132;44.014;20.918;2023-12-14T06:57:15;11.88;;;7.18;;
79664;SDS011;69132;44.014;20.918;2023-12-14T06:59:43;12.75;;;7.95;;
79664;SDS011;69132;44.014;20.918;2023-12-14T07:02:10;13.57;;;7.22;;
79664;SDS011;69132;44.014;20.918;2023-12-14T07:04:36;15.07;;;7.68;;
79664;SDS011;69132;44.014;20.918;2023-12-14T07:07:02;9.82;;;5.18;;
79664;SDS011;69132;44.014;20.918;2023-12-14T07:09:28;11.07;;;6.82;;
79664;SDS011;69132;44.014;20.918;2023-12-14T07:11:55;19.38;;;11.27;;
79664;SDS011;69132;44.014;20.918;2023-12-14T07:14:23;14.93;;;9.40;;
79664;SDS011;69132;44.014;20.918;2023-12-14T07:16:50;16.27;;;10.57;;
79664;SDS011;69132;44.014;20.918;2023-12-14T07:19:16;20.95;;;13.25;;
79664;SDS011;69132;44.014;20.918;2023-12-14T07:21:43;26.75;;;16.30;;
79664;SDS011;69132;44.014;20.918;2023-12-14T07:24:09;22.58;;;16.15;;
79664;SDS011;69132;44.014;20.918;2023-12-14T07:26:35;20.48;;;13.45;;
79664;SDS011;69132;44.014;20.918;2023-12-14T07:29:02;21.50;;;13.57;;
79664;SDS011;69132;44.014;20.918;2023-12-14T07:31:31;23.80;;;14.70;;
79664;SDS011;69132;44.014;20.918;2023-12-14T07:33:59;26.33;;;15.20;;
79664;SDS011;69132;44.014;20.918;2023-12-14T07:36:26;24.48;;;14.27;;
79664;SDS011;69132;44.014;20.918;2023-12-14T07:38:52;34.47;;;14.15;;
79664;SDS011;69132;44.014;20.918;2023-12-14T07:41:19;58.25;;;27.23;;
79664;SDS011;69132;44.014;20.918;2023-12-14T07:43:48;18.02;;;10.18;;
79664;SDS011;69132;44.014;20.918;2023-12-14T07:46:14;16.45;;;8.65;;
79664;SDS011;69132;44.014;20.918;2023-12-14T07:48:40;11.95;;;7.75;;
79664;SDS011;69132;44.014;20.918;2023-12-14T07:51:06;11.10;;;6.75;;
79664;SDS011;69132;44.014;20.918;2023-12-14T07:53:32;7.47;;;4.72;;
79664;SDS011;69132;44.014;20.918;2023-12-14T07:55:58;11.18;;;7.85;;
79664;SDS011;69132;44.014;20.918;2023-12-14T08:00:53;18.40;;;10.40;;
79664;SDS011;69132;44.014;20.918;2023-12-14T08:03:23;20.90;;;12.13;;
79664;SDS011;69132;44.014;20.918;2023-12-14T08:05:49;11.10;;;6.28;;
79664;SDS011;69132;44.014;20.918;2023-12-14T08:08:16;10.02;;;4.10;;
79664;SDS011;69132;44.014;20.918;2023-12-14T08:10:43;6.35;;;3.88;;
79664;SDS011;69132;44.014;20.918;2023-12-14T08:13:10;4.95;;;3.67;;
79664;SDS011;69132;44.014;20.918;2023-12-14T08:15:36;5.78;;;3.53;;
79664;SDS011;69132;44.014;20.918;2023-12-14T08:18:02;5.82;;;3.28;;
79664;SDS011;69132;44.014;20.918;2023-12-14T08:20:29;6.88;;;4.00;;
79664;SDS011;69132;44.014;20.918;2023-12-14T08:22:55;5.55;;;3.95;;
79664;SDS011;69132;44.014;20.918;2023-12-14T08:25:21;8.85;;;4.30;;
79664;SDS011;69132;44.014;20.918;2023-12-14T08:27:47;5.47;;;4.05;;
79664;SDS011;69132;44.014;20.918;2023-12-14T08:30:13;7.85;;;4.30;;
79664;SDS011;69132;44.014;20.918;2023-12-14T08:32:42;4.95;;;3.67;;
79664;SDS011;69132;44.014;20.918;2023-12-14T08:35:09;7.15;;;4.38;;
79664;SDS011;69132;44.014;20.918;2023-12-14T08:37:36;7.22;;;4.65;;
79664;SDS011;69132;44.014;20.918;2023-12-14T08:40:03;9.70;;;5.00;;
79664;SDS011;69132;44.014;20.918;2023-12-14T08:42:30;7.88;;;4.82;;
79664;SDS011;69132;44.014;20.918;2023-12-14T08:44:57;5.45;;;4.22;;
79664;SDS011;69132;44.014;20.918;2023-12-14T08:47:23;6.20;;;4.68;;
79664;SDS011;69132;44.014;20.918;2023-12-14T08:49:50;7.43;;;3.70;;
79664;SDS011;69132;44.014;20.918;2023-12-14T08:52:16;8.57;;;4.72;;
79664;SDS011;69132;44.014;20.918;2023-12-14T08:54:43;6.40;;;3.63;;
79664;SDS011;69132;44.014;20.918;2023-12-14T08:57:09;5.28;;;4.07;;
79664;SDS011;69132;44.014;20.918;2023-12-14T08:59:37;5.88;;;3.63;;
79664;SDS011;69132;44.014;20.918;2023-12-14T09:02:04;3.92;;;2.33;;
79664;SDS011;69132;44.014;20.918;2023-12-14T09:04:30;7.05;;;3.13;;
79664;SDS011;69132;44.014;20.918;2023-12-14T09:06:56;3.33;;;2.47;;
79664;SDS011;69132;44.014;20.918;2023-12-14T09:09:22;5.68;;;3.10;;
79664;SDS011;69132;44.014;20.918;2023-12-14T09:11:49;5.63;;;3.70;;
79664;SDS011;69132;44.014;20.918;2023-12-14T09:14:15;7.25;;;4.93;;
79664;SDS011;69132;44.014;20.918;2023-12-14T09:16:41;7.97;;;5.03;;
79664;SDS011;69132;44.014;20.918;2023-12-14T09:19:10;12.10;;;5.60;;
79664;SDS011;69132;44.014;20.918;2023-12-14T09:21:39;7.93;;;5.18;;
79664;SDS011;69132;44.014;20.918;2023-12-14T09:24:06;6.45;;;4.72;;
79664;SDS011;69132;44.014;20.918;2023-12-14T09:26:32;8.13;;;5.18;;
79664;SDS011;69132;44.014;20.918;2023-12-14T09:29:00;7.45;;;5.07;;
79664;SDS011;69132;44.014;20.918;2023-12-14T09:31:27;6.93;;;5.32;;
79664;SDS011;69132;44.014;20.918;2023-12-14T09:33:53;8.57;;;4.95;;
79664;SDS011;69132;44.014;20.918;2023-12-14T09:36:19;6.40;;;4.97;;
79664;SDS011;69132;44.014;20.918;2023-12-14T09:38:46;10.60;;;6.38;;
79664;SDS011;69132;44.014;20.918;2023-12-14T09:41:12;10.30;;;6.57;;
79664;SDS011;69132;44.014;20.918;2023-12-14T09:43:39;12.13;;;7.70;;
79664;SDS011;69132;44.014;20.918;2023-12-14T09:46:05;9.68;;;6.50;;
79664;SDS011;69132;44.014;20.918;2023-12-14T09:48:33;5.78;;;4.07;;
79664;SDS011;69132;44.014;20.918;2023-12-14T09:50:59;7.57;;;4.45;;
79664;SDS011;69132;44.014;20.918;2023-12-14T09:53:25;12.05;;;6.57;;
79664;SDS011;69132;44.014;20.918;2023-12-14T09:55:51;10.82;;;6.60;;
79664;SDS011;69132;44.014;20.918;2023-12-14T09:58:20;9.73;;;7.00;;
79664;SDS011;69132;44.014;20.918;2023-12-14T10:00:46;8.55;;;6.07;;
79664;SDS011;69132;44.014;20.918;2023-12-14T10:03:22;11.82;;;7.65;;
79664;SDS011;69132;44.014;20.918;2023-12-14T10:05:53;12.82;;;9.60;;
79664;SDS011;69132;44.014;20.918;2023-12-14T10:08:19;10.15;;;7.18;;
79664;SDS011;69132;44.014;20.918;2023-12-14T10:10:46;13.32;;;7.35;;
79664;SDS011;69132;44.014;20.918;2023-12-14T10:13:14;12.98;;;9.57;;
79664;SDS011;69132;44.014;20.918;2023-12-14T10:15:49;15.50;;;9.90;;
79664;SDS011;69132;44.014;20.918;2023-12-14T10:18:22;14.25;;;10.13;;
79664;SDS011;69132;44.014;20.918;2023-12-14T10:20:52;13.55;;;8.02;;
79664;SDS011;69132;44.014;20.918;2023-12-14T10:26:25;13.02;;;8.90;;
79664;SDS011;69132;44.014;20.918;2023-12-14T10:28:54;11.73;;;6.75;;
79664;SDS011;69132;44.014;20.918;2023-12-14T10:31:20;9.80;;;7.18;;
79664;SDS011;69132;44.014;20.918;2023-12-14T10:33:46;12.93;;;8.48;;
79664;SDS011;69132;44.014;20.918;2023-12-14T10:36:13;9.75;;;6.57;;
79664;SDS011;69132;44.014;20.918;2023-12-14T10:38:43;7.07;;;5.75;;
79664;SDS011;69132;44.014;20.918;2023-12-14T10:41:11;10.93;;;6.77;;
79664;SDS011;69132;44.014;20.918;2023-12-14T10:46:05;9.77;;;6.28;;
79664;SDS011;69132;44.014;20.918;2023-12-14T10:48:32;10.20;;;6.75;;
79664;SDS011;69132;44.014;20.918;2023-12-14T10:51:01;9.77;;;6.95;;
79664;SDS011;69132;44.014;20.918;2023-12-14T10:53:28;12.65;;;8.45;;
79664;SDS011;69132;44.014;20.918;2023-12-14T10:55:54;12.50;;;7.50;;
79664;SDS011;69132;44.014;20.918;2023-12-14T10:58:24;13.00;;;7.07;;
79664;SDS011;69132;44.014;20.918;2023-12-14T11:01:00;12.60;;;6.88;;
79664;SDS011;69132;44.014;20.918;2023-12-14T11:03:27;12.10;;;7.20;;
79664;SDS011;69132;44.014;20.918;2023-12-14T11:06:00;10.73;;;7.18;;
79664;SDS011;69132;44.014;20.918;2023-12-14T11:08:26;11.15;;;7.40;;
79664;SDS011;69132;44.014;20.918;2023-12-14T11:10:53;13.40;;;8.75;;
79664;SDS011;69132;44.014;20.918;2023-12-14T11:13:23;11.20;;;8.13;;
79664;SDS011;69132;44.014;20.918;2023-12-14T11:15:50;11.73;;;8.13;;
79664;SDS011;69132;44.014;20.918;2023-12-14T11:20:58;9.38;;;6.80;;
79664;SDS011;69132;44.014;20.918;2023-12-14T11:23:33;8.75;;;5.70;;
79664;SDS011;69132;44.014;20.918;2023-12-14T11:26:03;9.23;;;6.40;;
79664;SDS011;69132;44.014;20.918;2023-12-14T11:28:30;9.55;;;6.13;;
79664;SDS011;69132;44.014;20.918;2023-12-14T11:30:57;10.20;;;8.25;;
79664;SDS011;69132;44.014;20.918;2023-12-14T11:33:23;12.25;;;10.75;;
79664;SDS011;69132;44.014;20.918;2023-12-14T11:35:50;13.95;;;8.43;;
79664;SDS011;69132;44.014;20.918;2023-12-14T11:38:19;13.13;;;8.90;;
79664;SDS011;69132;44.014;20.918;2023-12-14T11:40:46;10.48;;;7.45;;
79664;SDS011;69132;44.014;20.918;2023-12-14T11:43:14;12.90;;;8.90;;
79664;SDS011;69132;44.014;20.918;2023-12-14T11:45:40;14.27;;;9.73;;
79664;SDS011;69132;44.014;20.918;2023-12-14T11:48:07;16.77;;;9.93;;
79664;SDS011;69132;44.014;20.918;2023-12-14T11:50:36;17.15;;;10.80;;
79664;SDS011;69132;44.014;20.918;2023-12-14T11:53:04;14.40;;;8.70;;
79664;SDS011;69132;44.014;20.918;2023-12-14T11:55:31;13.07;;;9.68;;
79664;SDS011;69132;44.014;20.918;2023-12-14T11:57:58;19.17;;;11.02;;
79664;SDS011;69132;44.014;20.918;2023-12-14T12:00:25;24.88;;;15.73;;
79664;SDS011;69132;44.014;20.918;2023-12-14T12:02:52;17.15;;;10.70;;
79664;SDS011;69132;44.014;20.918;2023-12-14T12:05:18;16.60;;;10.38;;
79664;SDS011;69132;44.014;20.918;2023-12-14T12:07:48;16.98;;;11.75;;
79664;SDS011;69132;44.014;20.918;2023-12-14T12:10:14;15.02;;;10.77;;
79664;SDS011;69132;44.014;20.918;2023-12-14T12:12:40;16.90;;;9.73;;
79664;SDS011;69132;44.014;20.918;2023-12-14T12:15:07;12.48;;;9.98;;
79664;SDS011;69132;44.014;20.918;2023-12-14T12:17:33;11.32;;;7.15;;
79664;SDS011;69132;44.014;20.918;2023-12-14T12:20:04;11.45;;;7.93;;
79664;SDS011;69132;44.014;20.918;2023-12-14T12:22:30;15.18;;;9.68;;
79664;SDS011;69132;44.014;20.918;2023-12-14T12:24:56;12.52;;;8.77;;
79664;SDS011;69132;44.014;20.918;2023-12-14T12:27:23;18.05;;;12.70;;
79664;SDS011;69132;44.014;20.918;2023-12-14T12:29:50;15.25;;;9.95;;
79664;SDS011;69132;44.014;20.918;2023-12-14T12:32:19;14.25;;;9.82;;
79664;SDS011;69132;44.014;20.918;2023-12-14T12:34:46;19.67;;;12.57;;
79664;SDS011;69132;44.014;20.918;2023-12-14T12:37:13;16.40;;;12.23;;
79664;SDS011;69132;44.014;20.918;2023-12-14T12:39:40;15.80;;;11.73;;
79664;SDS011;69132;44.014;20.918;2023-12-14T12:42:06;16.30;;;11.63;;
79664;SDS011;69132;44.014;20.918;2023-12-14T12:44:33;15.45;;;11.43;;
79664;SDS011;69132;44.014;20.918;2023-12-14T12:47:05;16.02;;;11.27;;
79664;SDS011;69132;44.014;20.918;2023-12-14T12:49:31;16.92;;;12.82;;
79664;SDS011;69132;44.014;20.918;2023-12-14T12:51:57;15.63;;;12.05;;
79664;SDS011;69132;44.014;20.918;2023-12-14T12:54:23;16.95;;;11.18;;
79664;SDS011;69132;44.014;20.918;2023-12-14T12:56:49;16.40;;;11.77;;
79664;SDS011;69132;44.014;20.918;2023-12-14T12:59:16;18.58;;;12.55;;
79664;SDS011;69132;44.014;20.918;2023-12-14T13:01:42;14.25;;;11.05;;
79664;SDS011;69132;44.014;20.918;2023-12-14T13:04:21;21.38;;;15.32;;
79664;SDS011;69132;44.014;20.918;2023-12-14T13:06:50;22.52;;;15.40;;
79664;SDS011;69132;44.014;20.918;2023-12-14T13:09:16;18.13;;;14.52;;
79664;SDS011;69132;44.014;20.918;2023-12-14T13:11:42;19.05;;;13.65;;
79664;SDS011;69132;44.014;20.918;2023-12-14T13:14:10;18.67;;;14.20;;
79664;SDS011;69132;44.014;20.918;2023-12-14T13:16:36;21.17;;;14.50;;
79664;SDS011;69132;44.014;20.918;2023-12-14T13:19:05;18.35;;;13.70;;
79664;SDS011;69132;44.014;20.918;2023-12-14T13:21:35;22.65;;;16.52;;
79664;SDS011;69132;44.014;20.918;2023-12-14T13:24:02;21.35;;;14.80;;
79664;SDS011;69132;44.014;20.918;2023-12-14T13:26:29;20.60;;;15.25;;
79664;SDS011;69132;44.014;20.918;2023-12-14T13:28:55;22.60;;;16.45;;
79664;SDS011;69132;44.014;20.918;2023-12-14T13:31:21;21.23;;;16.20;;
79664;SDS011;69132;44.014;20.918;2023-12-14T13:33:47;23.88;;;15.63;;
79664;SDS011;69132;44.014;20.918;2023-12-14T13:36:15;22.30;;;16.77;;
79664;SDS011;69132;44.014;20.918;2023-12-14T13:38:41;21.42;;;15.63;;
79664;SDS011;69132;44.014;20.918;2023-12-14T13:41:08;22.80;;;15.57;;
79664;SDS011;69132;44.014;20.918;2023-12-14T13:43:34;19.65;;;14.73;;
79664;SDS011;69132;44.014;20.918;2023-12-14T13:46:00;19.60;;;14.30;;
79664;SDS011;69132;44.014;20.918;2023-12-14T13:48:27;20.95;;;15.45;;
79664;SDS011;69132;44.014;20.918;2023-12-14T13:50:54;20.08;;;14.32;;
79664;SDS011;69132;44.014;20.918;2023-12-14T13:53:21;20.85;;;14.55;;
79664;SDS011;69132;44.014;20.918;2023-12-14T13:55:47;20.00;;;15.55;;
79664;SDS011;69132;44.014;20.918;2023-12-14T13:58:16;23.23;;;16.30;;
79664;SDS011;69132;44.014;20.918;2023-12-14T14:00:43;22.95;;;17.27;;
79664;SDS011;69132;44.014;20.918;2023-12-14T14:03:10;25.65;;;16.85;;
79664;SDS011;69132;44.014;20.918;2023-12-14T14:05:36;24.67;;;17.15;;
79664;SDS011;69132;44.014;20.918;2023-12-14T14:08:02;26.73;;;16.98;;
79664;SDS011;69132;44.014;20.918;2023-12-14T14:10:29;24.55;;;16.83;;
79664;SDS011;69132;44.014;20.918;2023-12-14T14:12:55;30.58;;;18.88;;
79664;SDS011;69132;44.014;20.918;2023-12-14T14:15:22;33.20;;;20.15;;
79664;SDS011;69132;44.014;20.918;2023-12-14T14:17:49;33.58;;;20.75;;
79664;SDS011;69132;44.014;20.918;2023-12-14T14:20:17;32.42;;;22.55;;
79664;SDS011;69132;44.014;20.918;2023-12-14T14:22:43;30.55;;;21.90;;
79664;SDS011;69132;44.014;20.918;2023-12-14T14:25:09;28.38;;;20.08;;
79664;SDS011;69132;44.014;20.918;2023-12-14T14:27:35;34.05;;;21.70;;
79664;SDS011;69132;44.014;20.918;2023-12-14T14:30:02;31.13;;;20.75;;
79664;SDS011;69132;44.014;20.918;2023-12-14T14:32:28;36.88;;;22.05;;
79664;SDS011;69132;44.014;20.918;2023-12-14T14:34:57;28.15;;;19.13;;
79664;SDS011;69132;44.014;20.918;2023-12-14T14:39:52;37.67;;;23.23;;
79664;SDS011;69132;44.014;20.918;2023-12-14T14:42:19;36.55;;;23.45;;
79664;SDS011;69132;44.014;20.918;2023-12-14T14:44:46;31.35;;;19.92;;
79664;SDS011;69132;44.014;20.918;2023-12-14T14:47:12;30.65;;;19.92;;
79664;SDS011;69132;44.014;20.918;2023-12-14T14:49:38;29.58;;;19.90;;
79664;SDS011;69132;44.014;20.918;2023-12-14T14:52:05;31.02;;;19.88;;
79664;SDS011;69132;44.014;20.918;2023-12-14T14:54:31;36.17;;;18.50;;
79664;SDS011;69132;44.014;20.918;2023-12-14T14:56:58;30.08;;;18.98;;
79664;SDS011;69132;44.014;20.918;2023-12-14T14:59:24;29.15;;;17.23;;
79664;SDS011;69132;44.014;20.918;2023-12-14T15:01:51;30.02;;;18.45;;
79664;SDS011;69132;44.014;20.918;2023-12-14T15:04:17;33.55;;;20.50;;
79664;SDS011;69132;44.014;20.918;2023-12-14T15:06:43;37.03;;;21.90;;
79664;SDS011;69132;44.014;20.918;2023-12-14T15:09:10;31.67;;;20.95;;
79664;SDS011;69132;44.014;20.918;2023-12-14T15:11:39;39.65;;;23.05;;
79664;SDS011;69132;44.014;20.918;2023-12-14T15:14:05;35.70;;;22.77;;
79664;SDS011;69132;44.014;20.918;2023-12-14T15:16:31;37.55;;;22.80;;
79664;SDS011;69132;44.014;20.918;2023-12-14T15:18:57;42.63;;;24.80;;
79664;SDS011;69132;44.014;20.918;2023-12-14T15:21:23;38.03;;;24.42;;
79664;SDS011;69132;44.014;20.918;2023-12-14T15:23:49;42.10;;;25.75;;
79664;SDS011;69132;44.014;20.918;2023-12-14T15:26:16;41.70;;;24.88;;
79664;SDS011;69132;44.014;20.918;2023-12-14T15:28:43;37.20;;;21.80;;
79664;SDS011;69132;44.014;20.918;2023-12-14T15:31:09;61.65;;;34.15;;
79664;SDS011;69132;44.014;20.918;2023-12-14T15:33:36;39.13;;;23.92;;
79664;SDS011;69132;44.014;20.918;2023-12-14T15:36:03;37.95;;;23.10;;
79664;SDS011;69132;44.014;20.918;2023-12-14T15:38:29;34.85;;;18.83;;
79664;SDS011;69132;44.014;20.918;2023-12-14T15:40:57;36.20;;;19.50;;
79664;SDS011;69132;44.014;20.918;2023-12-14T15:43:23;37.08;;;19.83;;
79664;SDS011;69132;44.014;20.918;2023-12-14T15:45:49;38.70;;;21.05;;
79664;SDS011;69132;44.014;20.918;2023-12-14T15:48:17;38.75;;;21.88;;
79664;SDS011;69132;44.014;20.918;2023-12-14T15:50:43;35.88;;;21.90;;
79664;SDS011;69132;44.014;20.918;2023-12-14T15:53:11;38.07;;;22.03;;
79664;SDS011;69132;44.014;20.918;2023-12-14T15:55:39;31.25;;;18.92;;
79664;SDS011;69132;44.014;20.918;2023-12-14T15:58:06;27.85;;;17.20;;
79664;SDS011;69132;44.014;20.918;2023-12-14T16:00:32;32.38;;;21.95;;
79664;SDS011;69132;44.014;20.918;2023-12-14T16:02:59;31.10;;;21.40;;
79664;SDS011;69132;44.014;20.918;2023-12-14T16:05:26;39.50;;;24.13;;
79664;SDS011;69132;44.014;20.918;2023-12-14T16:07:53;40.13;;;25.65;;
79664;SDS011;69132;44.014;20.918;2023-12-14T16:10:19;40.03;;;26.45;;
79664;SDS011;69132;44.014;20.918;2023-12-14T16:12:45;44.10;;;26.42;;
79664;SDS011;69132;44.014;20.918;2023-12-14T16:15:11;40.90;;;25.65;;
79664;SDS011;69132;44.014;20.918;2023-12-14T16:17:37;35.58;;;24.30;;
79664;SDS011;69132;44.014;20.918;2023-12-14T16:20:05;31.33;;;20.15;;
79664;SDS011;69132;44.014;20.918;2023-12-14T16:22:33;36.83;;;23.52;;
79664;SDS011;69132;44.014;20.918;2023-12-14T16:25:02;41.10;;;24.08;;
79664;SDS011;69132;44.014;20.918;2023-12-14T16:27:29;35.80;;;21.95;;
79664;SDS011;69132;44.014;20.918;2023-12-14T16:29:55;35.30;;;22.08;;
79664;SDS011;69132;44.014;20.918;2023-12-14T16:32:23;32.35;;;21.30;;
79664;SDS011;69132;44.014;20.918;2023-12-14T16:34:49;37.97;;;21.55;;
79664;SDS011;69132;44.014;20.918;2023-12-14T16:37:16;33.22;;;21.17;;
79664;SDS011;69132;44.014;20.918;2023-12-14T16:39:43;33.55;;;21.83;;
79664;SDS011;69132;44.014;20.918;2023-12-14T16:42:09;32.95;;;21.88;;
79664;SDS011;69132;44.014;20.918;2023-12-14T16:44:39;37.75;;;24.83;;
79664;SDS011;69132;44.014;20.918;2023-12-14T16:47:06;40.17;;;25.35;;
79664;SDS011;69132;44.014;20.918;2023-12-14T16:49:35;39.72;;;24.92;;
79664;SDS011;69132;44.014;20.918;2023-12-14T16:52:10;36.17;;;23.02;;
79664;SDS011;69132;44.014;20.918;2023-12-14T16:54:36;40.42;;;23.55;;
79664;SDS011;69132;44.014;20.918;2023-12-14T16:57:09;55.65;;;31.67;;
79664;SDS011;69132;44.014;20.918;2023-12-14T16:59:35;48.85;;;26.88;;
79664;SDS011;69132;44.014;20.918;2023-12-14T17:02:03;33.97;;;18.92;;
79664;SDS011;69132;44.014;20.918;2023-12-14T17:04:32;24.67;;;16.10;;
79664;SDS011;69132;44.014;20.918;2023-12-14T17:06:58;21.95;;;14.00;;
79664;SDS011;69132;44.014;20.918;2023-12-14T17:09:24;20.00;;;13.93;;
79664;SDS011;69132;44.014;20.918;2023-12-14T17:11:53;22.37;;;12.27;;
79664;SDS011;69132;44.014;20.918;2023-12-14T17:14:19;22.38;;;13.75;;
79664;SDS011;69132;44.014;20.918;2023-12-14T17:16:50;21.65;;;13.02;;
79664;SDS011;69132;44.014;20.918;2023-12-14T17:19:19;21.45;;;13.30;;
79664;SDS011;69132;44.014;20.918;2023-12-14T17:21:46;18.60;;;12.85;;
79664;SDS011;69132;44.014;20.918;2023-12-14T17:24:12;24.23;;;14.20;;
79664;SDS011;69132;44.014;20.918;2023-12-14T17:26:39;29.15;;;14.93;;
79664;SDS011;69132;44.014;20.918;2023-12-14T17:29:05;21.60;;;12.50;;
79664;SDS011;69132;44.014;20.918;2023-12-14T17:31:34;20.80;;;12.25;;
79664;SDS011;69132;44.014;20.918;2023-12-14T17:34:01;21.63;;;13.77;;
79664;SDS011;69132;44.014;20.918;2023-12-14T17:36:28;26.10;;;14.63;;
79664;SDS011;69132;44.014;20.918;2023-12-14T17:38:54;21.88;;;13.32;;
79664;SDS011;69132;44.014;20.918;2023-12-14T17:41:21;26.33;;;15.02;;
79664;SDS011;69132;44.014;20.918;2023-12-14T17:43:47;24.15;;;14.30;;
79664;SDS011;69132;44.014;20.918;2023-12-14T17:46:13;19.95;;;12.63;;
79664;SDS011;69132;44.014;20.918;2023-12-14T17:48:45;18.88;;;12.20;;
79664;SDS011;69132;44.014;20.918;2023-12-14T17:51:11;19.33;;;12.18;;
79664;SDS011;69132;44.014;20.918;2023-12-14T17:53:40;21.38;;;13.55;;
79664;SDS011;69132;44.014;20.918;2023-12-14T17:56:09;23.58;;;13.10;;
79664;SDS011;69132;44.014;20.918;2023-12-14T17:58:35;19.90;;;13.00;;
79664;SDS011;69132;44.014;20.918;2023-12-14T18:01:01;17.92;;;13.20;;
79664;SDS011;69132;44.014;20.918;2023-12-14T18:03:29;19.98;;;12.60;;
79664;SDS011;69132;44.014;20.918;2023-12-14T18:05:56;21.25;;;13.85;;
79664;SDS011;69132;44.014;20.918;2023-12-14T18:08:25;19.25;;;13.27;;
79664;SDS011;69132;44.014;20.918;2023-12-14T18:10:51;17.95;;;12.40;;
79664;SDS011;69132;44.014;20.918;2023-12-14T18:13:18;20.52;;;13.77;;
79664;SDS011;69132;44.014;20.918;2023-12-14T18:15:46;17.52;;;13.00;;
79664;SDS011;69132;44.014;20.918;2023-12-14T18:18:12;23.80;;;15.95;;
79664;SDS011;69132;44.014;20.918;2023-12-14T18:20:39;23.80;;;16.48;;
79664;SDS011;69132;44.014;20.918;2023-12-14T18:23:08;25.63;;;18.10;;
79664;SDS011;69132;44.014;20.918;2023-12-14T18:25:35;33.92;;;21.08;;
79664;SDS011;69132;44.014;20.918;2023-12-14T18:28:01;32.20;;;22.20;;
79664;SDS011;69132;44.014;20.918;2023-12-14T18:30:29;33.15;;;22.58;;
79664;SDS011;69132;44.014;20.918;2023-12-14T18:32:56;27.23;;;20.42;;
79664;SDS011;69132;44.014;20.918;2023-12-14T18:35:23;30.38;;;20.60;;
79664;SDS011;69132;44.014;20.918;2023-12-14T18:37:50;26.52;;;19.27;;
79664;SDS011;69132;44.014;20.918;2023-12-14T18:40:16;26.85;;;18.20;;
79664;SDS011;69132;44.014;20.918;2023-12-14T18:42:46;26.30;;;18.52;;
79664;SDS011;69132;44.014;20.918;2023-12-14T18:45:13;23.40;;;17.98;;
79664;SDS011;69132;44.014;20.918;2023-12-14T18:47:39;25.38;;;17.17;;
79664;SDS011;69132;44.014;20.918;2023-12-14T18:50:05;21.23;;;15.88;;
79664;SDS011;69132;44.014;20.918;2023-12-14T18:52:32;26.02;;;17.85;;
79664;SDS011;69132;44.014;20.918;2023-12-14T18:54:58;23.42;;;16.92;;
79664;SDS011;69132;44.014;20.918;2023-12-14T18:57:25;27.88;;;18.95;;
79664;SDS011;69132;44.014;20.918;2023-12-14T18:59:52;26.52;;;19.45;;
79664;SDS011;69132;44.014;20.918;2023-12-14T19:02:18;23.75;;;16.92;;
79664;SDS011;69132;44.014;20.918;2023-12-14T19:04:50;24.23;;;16.67;;
79664;SDS011;69132;44.014;20.918;2023-12-14T19:07:16;24.92;;;17.83;;
79664;SDS011;69132;44.014;20.918;2023-12-14T19:09:42;34.47;;;26.55;;
79664;SDS011;69132;44.014;20.918;2023-12-14T19:12:12;30.63;;;22.98;;
79664;SDS011;69132;44.014;20.918;2023-12-14T19:14:38;26.65;;;17.48;;
79664;SDS011;69132;44.014;20.918;2023-12-14T19:17:04;23.40;;;17.33;;
79664;SDS011;69132;44.014;20.918;2023-12-14T19:19:31;24.58;;;17.92;;
79664;SDS011;69132;44.014;20.918;2023-12-14T19:21:58;23.40;;;17.25;;
79664;SDS011;69132;44.014;20.918;2023-12-14T19:26:54;25.05;;;17.17;;
79664;SDS011;69132;44.014;20.918;2023-12-14T19:29:20;24.63;;;18.42;;
79664;SDS011;69132;44.014;20.918;2023-12-14T19:31:46;28.63;;;19.35;;
79664;SDS011;69132;44.014;20.918;2023-12-14T19:34:13;26.73;;;18.95;;
79664;SDS011;69132;44.014;20.918;2023-12-14T19:36:42;32.15;;;19.85;;
79664;SDS011;69132;44.014;20.918;2023-12-14T19:39:08;27.23;;;19.98;;
79664;SDS011;69132;44.014;20.918;2023-12-14T19:41:37;28.98;;;19.15;;
79664;SDS011;69132;44.014;20.918;2023-12-14T19:44:06;29.80;;;20.17;;
79664;SDS011;69132;44.014;20.918;2023-12-14T19:48:58;28.35;;;20.27;;
79664;SDS011;69132;44.014;20.918;2023-12-14T19:51:24;28.75;;;20.67;;
79664;SDS011;69132;44.014;20.918;2023-12-14T19:53:50;25.35;;;18.23;;
79664;SDS011;69132;44.014;20.918;2023-12-14T19:56:17;26.85;;;19.63;;
79664;SDS011;69132;44.014;20.918;2023-12-14T19:58:44;24.10;;;19.75;;
79664;SDS011;69132;44.014;20.918;2023-12-14T20:01:10;26.85;;;19.70;;
79664;SDS011;69132;44.014;20.918;2023-12-14T20:03:38;26.83;;;18.13;;